Denver, Colorado
Traffic Map
Current Weather Conditions
Denver, Colorado
Broken Clouds
Broken Clouds
64°
Feels Like: 64°
Wind Chill: 64° Ceiling: 3200
Heat Index: 64° Visibility: 10mi
Dew Point: 59° Wind: 5mph
Humidity: 83% Direction: 20° (NNE)
Pressure: 30.25in Gusts: 0mph
Raw Report DataKBJC 261050Z AUTO 02004KT 10SM BKN032 BKN050 18/15 A3025 RMK AO2
Traffic Incident Summary
Active as of:
Severity:
Category:
InformationThere was an issue retrieving the traffic information for this location. Please try a different location or try again shortly.
Advertisements
Track Severe Weather on mobile